Jock — WDF2423 — position and weather

sailwx.info

Track history (hours):
 
Tides and Currents Weather Stations Pressure Air Temp Water Temp Dewpoint Dewpoint Depression Visibility Wind Speed Wind Dir Waves Ship Positions

Jock

Owner: Enterprise Marine Services, LLC, San Antonio, TX. More information available from US FCC via Universal Licensing System and Coast Guard Vessel Documentation Center.

Last reported at 2016-Apr-28 14:03 UTC. Time now 2016-Apr-30 07:12 UTC.
Position N 29°41' W 094°09'.

Length 28 m; draft 8.6 m.

Type: Other ship. MMSI: 367003460.

Date/timePositionNaut miles runAvg speedWind from/ knotsBaromVisibWave heightAir tempDewpointWater temp
2016-Apr-28 14:03N 29°41' W 094°09'5 4.5
2016-Apr-28 13:04N 29°40' W 094°14'8 3.3
2016-Apr-28 10:30N 29°36' W 094°23'3 2.8
2016-Apr-28 09:30N 29°34' W 094°25'25 3.6
2016-Apr-28 02:33N 29°32' W 094°54'6 6.4
2016-Apr-28 01:33N 29°37' W 094°58'6 6.1
2016-Apr-28 00:33N 29°43' W 095°01'5 4.2
2016-Apr-27 23:23N 29°44' W 095°06'3 0.1
2016-Apr-26 00:33N 29°45' W 095°10'4 4.1
2016-Apr-25 23:33N 29°46' W 095°05'1 0.3
2016-Apr-25 18:33N 29°47' W 095°05'1 0.6
2016-Apr-25 17:32N 29°47' W 095°05'1 0.0
2016-Apr-25 00:32N 29°47' W 095°04'3 2.6
2016-Apr-24 23:33N 29°45' W 095°04'4 4.4
2016-Apr-24 22:33N 29°42' W 094°60'5 5.1
2016-Apr-24 21:33N 29°37' W 094°57'6 5.6
2016-Apr-24 20:33N 29°32' W 094°54'15 0.5
2016-Apr-23 13:33N 29°29' W 094°37'0 0.0
2016-Apr-23 12:33N 29°29' W 094°37'0 0.0
2016-Apr-23 11:33N 29°29' W 094°37'  
2016-Apr-20 07:11N 29°57' W 093°52'0 0.0
2016-Apr-20 06:32N 29°57' W 093°52'2 0.1
2016-Apr-19 14:32N 29°59' W 093°53'0 0.0
2016-Apr-19 13:33N 29°59' W 093°53'0 0.0
2016-Apr-19 12:33N 29°59' W 093°53'0 0.0
2016-Apr-19 11:33N 29°59' W 093°53'0 0.0
2016-Apr-19 10:32N 29°59' W 093°53'0 0.0
2016-Apr-19 09:33N 29°59' W 093°53'0 0.0
2016-Apr-19 08:33N 29°59' W 093°53'0 0.0
2016-Apr-19 07:33N 29°59' W 093°53'0 0.0
2016-Apr-19 06:33N 29°59' W 093°53'0 0.0
2016-Apr-19 05:33N 29°59' W 093°53'0 0.0
2016-Apr-19 04:33N 29°59' W 093°53'0 0.0
2016-Apr-19 03:33N 29°59' W 093°53'0 0.0
2016-Apr-19 02:33N 29°59' W 093°53'0 0.0
2016-Apr-19 01:33N 29°59' W 093°53'0 0.0
2016-Apr-19 00:33N 29°59' W 093°53'0 0.0
2016-Apr-18 23:33N 29°59' W 093°53'  
Track history (hours):
 
Tides and Currents Weather Stations Pressure Air Temp Water Temp Dewpoint Dewpoint Depression Visibility Wind Speed Wind Dir Waves Ship Positions

Jock

Owner: Enterprise Marine Services, LLC, San Antonio, TX. More information available from US FCC via Universal Licensing System and Coast Guard Vessel Documentation Center.

Last reported at 2016-Apr-28 14:03 UTC. Time now 2016-Apr-30 07:12 UTC.
Position N 29°41' W 094°09'.

Length 28 m; draft 8.6 m.

Type: Other ship. MMSI: 367003460.

Date/timePositionNaut miles runAvg speedWind from/ knotsBaromVisibWave heightAir tempDewpointWater temp
2016-Apr-28 14:03N 29°41' W 094°09'5 4.5
2016-Apr-28 13:04N 29°40' W 094°14'8 3.3
2016-Apr-28 10:30N 29°36' W 094°23'3 2.8
2016-Apr-28 09:30N 29°34' W 094°25'25 3.6
2016-Apr-28 02:33N 29°32' W 094°54'6 6.4
2016-Apr-28 01:33N 29°37' W 094°58'6 6.1
2016-Apr-28 00:33N 29°43' W 095°01'5 4.2
2016-Apr-27 23:23N 29°44' W 095°06'3 0.1
2016-Apr-26 00:33N 29°45' W 095°10'4 4.1
2016-Apr-25 23:33N 29°46' W 095°05'1 0.3
2016-Apr-25 18:33N 29°47' W 095°05'1 0.6
2016-Apr-25 17:32N 29°47' W 095°05'1 0.0
2016-Apr-25 00:32N 29°47' W 095°04'3 2.6
2016-Apr-24 23:33N 29°45' W 095°04'4 4.4
2016-Apr-24 22:33N 29°42' W 094°60'5 5.1
2016-Apr-24 21:33N 29°37' W 094°57'6 5.6
2016-Apr-24 20:33N 29°32' W 094°54'15 0.5
2016-Apr-23 13:33N 29°29' W 094°37'0 0.0
2016-Apr-23 12:33N 29°29' W 094°37'0 0.0
2016-Apr-23 11:33N 29°29' W 094°37'  
2016-Apr-20 07:11N 29°57' W 093°52'0 0.0
2016-Apr-20 06:32N 29°57' W 093°52'2 0.1
2016-Apr-19 14:32N 29°59' W 093°53'0 0.0
2016-Apr-19 13:33N 29°59' W 093°53'0 0.0
2016-Apr-19 12:33N 29°59' W 093°53'0 0.0
2016-Apr-19 11:33N 29°59' W 093°53'0 0.0
2016-Apr-19 10:32N 29°59' W 093°53'0 0.0
2016-Apr-19 09:33N 29°59' W 093°53'0 0.0
2016-Apr-19 08:33N 29°59' W 093°53'0 0.0
2016-Apr-19 07:33N 29°59' W 093°53'0 0.0
2016-Apr-19 06:33N 29°59' W 093°53'0 0.0
2016-Apr-19 05:33N 29°59' W 093°53'0 0.0
2016-Apr-19 04:33N 29°59' W 093°53'0 0.0
2016-Apr-19 03:33N 29°59' W 093°53'0 0.0
2016-Apr-19 02:33N 29°59' W 093°53'0 0.0
2016-Apr-19 01:33N 29°59' W 093°53'0 0.0
2016-Apr-19 00:33N 29°59' W 093°53'0 0.0
2016-Apr-18 23:33N 29°59' W 093°53'  

Dump ship's entire track history